createdAt,value
2017-12-28T00:01:54.812Z,5.22
2017-12-28T00:04:20.648Z,5.47
2017-12-28T00:06:46.453Z,5.95
2017-12-28T00:09:12.243Z,6.05
2017-12-28T00:11:38.351Z,5.54
2017-12-28T00:14:04.143Z,5.57
2017-12-28T00:16:29.932Z,5.53
2017-12-28T00:18:55.750Z,5.38
2017-12-28T00:21:21.539Z,5.78
2017-12-28T00:23:47.334Z,5.17
2017-12-28T00:26:13.118Z,5.61
2017-12-28T00:31:11.516Z,5.02
2017-12-28T00:33:37.336Z,5.17
2017-12-28T00:36:03.131Z,4.93
2017-12-28T00:38:28.910Z,5.23
2017-12-28T00:40:55.037Z,4.70
2017-12-28T00:43:20.840Z,5.00
2017-12-28T00:45:46.631Z,4.62
2017-12-28T00:48:12.415Z,5.10
2017-12-28T00:50:38.225Z,4.90
2017-12-28T00:53:04.035Z,4.79
2017-12-28T00:55:29.841Z,4.57
2017-12-28T00:57:55.628Z,5.00
2017-12-28T01:00:21.440Z,4.60
2017-12-28T01:02:47.258Z,4.49
2017-12-28T01:05:13.054Z,5.17
2017-12-28T01:07:38.843Z,5.51
2017-12-28T01:10:04.655Z,5.15
2017-12-28T01:12:30.444Z,4.92
2017-12-28T01:14:57.302Z,4.63
2017-12-28T01:17:23.090Z,4.55
2017-12-28T01:19:48.868Z,4.61
2017-12-28T01:22:14.663Z,4.87
2017-12-28T01:24:40.472Z,4.61
2017-12-28T01:27:06.242Z,4.80
2017-12-28T01:29:32.326Z,4.61
2017-12-28T01:31:58.142Z,4.61
2017-12-28T01:34:23.911Z,4.94
2017-12-28T01:36:49.987Z,5.61
2017-12-28T01:39:15.770Z,4.97
2017-12-28T01:41:41.569Z,4.24
2017-12-28T01:44:07.379Z,4.22
2017-12-28T01:46:33.162Z,4.40
2017-12-28T01:48:58.940Z,4.17
2017-12-28T01:51:24.751Z,4.18
2017-12-28T01:53:50.523Z,3.83
2017-12-28T01:56:16.325Z,3.96
2017-12-28T01:58:42.135Z,4.17
2017-12-28T02:01:07.931Z,4.14
2017-12-28T02:03:33.716Z,4.25
2017-12-28T02:05:59.507Z,4.46
2017-12-28T02:08:25.286Z,4.20
2017-12-28T02:10:51.071Z,4.17
2017-12-28T02:13:16.890Z,4.26
2017-12-28T02:15:42.678Z,4.24
2017-12-28T02:18:08.468Z,4.32
2017-12-28T02:20:34.274Z,4.37
2017-12-28T02:23:00.072Z,4.33
2017-12-28T02:25:25.855Z,4.46
2017-12-28T02:27:51.661Z,4.48
2017-12-28T02:30:17.455Z,4.54
2017-12-28T02:32:43.251Z,4.60
2017-12-28T02:35:09.040Z,4.66
2017-12-28T02:37:34.827Z,4.68
2017-12-28T02:40:00.642Z,4.64
2017-12-28T02:42:26.428Z,4.73
2017-12-28T02:44:52.205Z,4.76
2017-12-28T02:47:18.023Z,4.75
2017-12-28T02:49:43.812Z,4.76
2017-12-28T02:52:09.592Z,4.69
2017-12-28T02:54:35.493Z,4.70
2017-12-28T02:57:01.307Z,4.75
2017-12-28T02:59:27.110Z,4.79
2017-12-28T03:01:52.935Z,4.82
2017-12-28T03:04:18.714Z,4.87
2017-12-28T03:06:44.505Z,4.88
2017-12-28T03:09:10.311Z,4.89
2017-12-28T03:11:36.088Z,4.75
2017-12-28T03:14:01.879Z,4.68
2017-12-28T03:16:27.709Z,4.73
2017-12-28T03:18:53.507Z,4.75
2017-12-28T03:21:19.290Z,4.75
2017-12-28T03:23:45.099Z,4.78
2017-12-28T03:26:10.910Z,4.72
2017-12-28T03:28:36.711Z,4.73
2017-12-28T03:31:02.539Z,4.72
2017-12-28T03:33:28.346Z,4.72
2017-12-28T03:35:54.120Z,4.74
2017-12-28T03:38:19.967Z,4.82
2017-12-28T03:40:45.746Z,4.75
2017-12-28T03:43:11.539Z,4.77
2017-12-28T03:45:37.329Z,4.71
2017-12-28T03:48:03.106Z,4.75
2017-12-28T03:50:28.929Z,4.69
2017-12-28T03:52:54.719Z,4.71
2017-12-28T03:55:20.519Z,4.69
2017-12-28T03:57:46.316Z,4.65
2017-12-28T04:00:12.132Z,4.68
2017-12-28T04:02:37.919Z,4.69
2017-12-28T04:05:03.726Z,4.72
2017-12-28T04:07:29.508Z,4.65
2017-12-28T04:09:55.319Z,4.65
2017-12-28T04:12:21.124Z,4.60
2017-12-28T04:14:46.906Z,4.64
2017-12-28T04:17:12.715Z,4.74
2017-12-28T04:19:38.490Z,4.56
2017-12-28T04:22:04.283Z,4.50
2017-12-28T04:24:30.095Z,4.64
2017-12-28T04:26:55.868Z,4.71
2017-12-28T04:29:21.660Z,4.65
2017-12-28T04:31:47.454Z,4.60
2017-12-28T04:34:14.105Z,4.53
2017-12-28T04:36:39.887Z,4.56
2017-12-28T04:39:05.673Z,4.63
2017-12-28T04:41:31.472Z,4.56
2017-12-28T04:43:57.258Z,4.61
2017-12-28T04:46:23.058Z,4.52
2017-12-28T04:48:48.899Z,4.55
2017-12-28T04:51:14.683Z,4.54
2017-12-28T04:53:40.505Z,4.57
2017-12-28T04:56:06.338Z,4.36
2017-12-28T04:58:32.139Z,4.36
2017-12-28T05:00:57.940Z,4.31
2017-12-28T05:03:23.730Z,4.26
2017-12-28T05:05:49.506Z,4.32
2017-12-28T05:08:15.318Z,4.30
2017-12-28T05:10:41.111Z,4.27
2017-12-28T05:13:06.900Z,4.26
2017-12-28T05:15:32.710Z,4.26
2017-12-28T05:17:58.499Z,4.14
2017-12-28T05:20:24.321Z,4.03
2017-12-28T05:22:50.119Z,4.02
2017-12-28T05:25:15.928Z,3.93
2017-12-28T05:27:41.729Z,3.83
2017-12-28T05:30:07.535Z,3.78
2017-12-28T05:32:33.319Z,3.74
2017-12-28T05:34:59.114Z,3.86
2017-12-28T05:37:24.916Z,3.77
2017-12-28T05:39:50.719Z,3.76
2017-12-28T05:42:16.811Z,3.69
2017-12-28T05:44:42.628Z,3.64
2017-12-28T05:47:08.413Z,3.56
2017-12-28T05:49:34.234Z,3.60
2017-12-28T05:52:00.050Z,3.53
2017-12-28T05:54:25.838Z,3.50
2017-12-28T05:56:51.628Z,3.53
2017-12-28T05:59:17.437Z,3.53
2017-12-28T06:01:43.216Z,3.69
2017-12-28T06:04:09.003Z,3.65
2017-12-28T06:06:34.814Z,3.48
2017-12-28T06:09:00.590Z,3.45
2017-12-28T06:11:26.364Z,3.41
2017-12-28T06:13:52.176Z,3.38
2017-12-28T06:16:17.959Z,3.44
2017-12-28T06:18:43.738Z,3.50
2017-12-28T06:21:09.582Z,3.39
2017-12-28T06:23:35.379Z,3.43
2017-12-28T06:26:01.167Z,3.55
2017-12-28T06:28:26.948Z,3.57
2017-12-28T06:30:52.735Z,3.50
2017-12-28T06:33:18.566Z,3.51
2017-12-28T06:35:44.387Z,3.57
2017-12-28T06:38:10.179Z,3.73
2017-12-28T06:40:36.003Z,3.70
2017-12-28T06:43:01.795Z,3.73
2017-12-28T06:45:27.591Z,3.71
2017-12-28T06:47:53.398Z,3.70
2017-12-28T06:50:19.218Z,3.77
2017-12-28T06:52:45.007Z,3.69
2017-12-28T06:55:10.819Z,3.66
2017-12-28T06:57:36.590Z,3.67
2017-12-28T07:00:02.405Z,3.63
2017-12-28T07:02:28.199Z,3.66
2017-12-28T07:04:53.978Z,3.62
2017-12-28T07:07:19.759Z,3.60
2017-12-28T07:09:45.538Z,3.57
2017-12-28T07:12:11.324Z,3.64
2017-12-28T07:14:37.102Z,3.54
2017-12-28T07:17:02.880Z,3.54
2017-12-28T07:19:29.025Z,3.48
2017-12-28T07:21:54.809Z,3.43
2017-12-28T07:24:20.607Z,3.40
2017-12-28T07:26:46.414Z,3.41
2017-12-28T07:29:12.202Z,3.45
2017-12-28T07:31:37.986Z,3.39
2017-12-28T07:34:10.939Z,3.29
2017-12-28T07:36:36.730Z,3.33
2017-12-28T07:39:02.565Z,3.33
2017-12-28T07:41:28.399Z,3.31
2017-12-28T07:43:54.189Z,3.30
2017-12-28T07:46:19.983Z,3.24
2017-12-28T07:48:45.812Z,3.31
2017-12-28T07:51:11.598Z,3.23
2017-12-28T07:53:37.400Z,3.28
2017-12-28T07:56:03.190Z,3.26
2017-12-28T07:58:28.966Z,3.27
2017-12-28T08:00:54.766Z,3.24
2017-12-28T08:03:20.555Z,3.28
2017-12-28T08:05:46.351Z,3.29
2017-12-28T08:08:14.092Z,3.22
2017-12-28T08:10:39.909Z,3.23
2017-12-28T08:13:05.723Z,3.25
2017-12-28T08:15:31.535Z,3.38
2017-12-28T08:17:57.332Z,3.56
2017-12-28T08:20:23.115Z,3.48
2017-12-28T08:22:49.218Z,3.50
2017-12-28T08:25:14.998Z,3.53
2017-12-28T08:27:40.794Z,3.43
2017-12-28T08:30:06.611Z,3.52
2017-12-28T08:32:32.394Z,3.50
2017-12-28T08:34:58.186Z,3.53
2017-12-28T08:37:24.021Z,3.45
2017-12-28T08:39:49.822Z,3.51
2017-12-28T08:42:15.598Z,3.55
2017-12-28T08:44:41.414Z,3.43
2017-12-28T08:47:07.206Z,3.46
2017-12-28T08:49:33.421Z,3.48
2017-12-28T08:51:59.300Z,3.46
2017-12-28T08:54:25.111Z,3.50
2017-12-28T08:56:50.926Z,3.42
2017-12-28T08:59:17.189Z,3.45
2017-12-28T09:01:43.010Z,3.57
2017-12-28T09:04:08.795Z,3.47
2017-12-28T09:06:34.583Z,3.53
2017-12-28T09:09:00.580Z,3.62
2017-12-28T09:11:26.372Z,3.55
2017-12-28T09:13:52.424Z,3.56
2017-12-28T09:16:18.210Z,3.61
2017-12-28T09:18:44.007Z,3.57
2017-12-28T09:21:09.807Z,3.53
2017-12-28T09:23:35.583Z,3.53
2017-12-28T09:26:01.411Z,3.56
2017-12-28T09:28:27.882Z,3.61
2017-12-28T09:30:53.695Z,3.70
2017-12-28T09:33:19.484Z,3.78
2017-12-28T09:35:45.287Z,3.74
2017-12-28T09:38:11.102Z,3.70
2017-12-28T09:40:36.905Z,3.62
2017-12-28T09:43:02.711Z,3.57
2017-12-28T09:45:28.515Z,3.67
2017-12-28T09:47:54.619Z,3.62
2017-12-28T09:50:20.414Z,3.62
2017-12-28T09:52:46.220Z,3.63
2017-12-28T09:55:12.024Z,3.63
2017-12-28T09:57:37.912Z,3.63
2017-12-28T10:00:03.819Z,3.61
2017-12-28T10:02:29.643Z,3.74
2017-12-28T10:07:28.399Z,3.75
2017-12-28T10:09:54.198Z,3.70
2017-12-28T10:12:19.984Z,3.79
2017-12-28T10:14:45.766Z,3.77
2017-12-28T10:17:11.786Z,3.80
2017-12-28T10:19:37.568Z,3.81
2017-12-28T10:22:03.359Z,3.87
2017-12-28T10:24:29.167Z,3.84
2017-12-28T10:26:54.959Z,3.88
2017-12-28T10:29:20.735Z,3.81
2017-12-28T10:31:46.522Z,3.87
2017-12-28T10:34:12.305Z,3.95
2017-12-28T10:36:38.111Z,3.89
2017-12-28T10:39:03.910Z,3.97
2017-12-28T10:41:29.695Z,4.01
2017-12-28T10:43:55.501Z,4.14
2017-12-28T10:46:21.290Z,4.46
2017-12-28T10:48:47.071Z,4.43
2017-12-28T10:51:12.866Z,4.23
2017-12-28T10:53:38.658Z,4.12
2017-12-28T10:56:04.440Z,4.21
2017-12-28T10:58:30.247Z,4.25
2017-12-28T11:00:56.014Z,4.25
2017-12-28T11:03:21.792Z,4.32
2017-12-28T11:05:47.582Z,4.31
2017-12-28T11:08:13.357Z,4.28
2017-12-28T11:10:39.189Z,4.35
2017-12-28T11:13:04.995Z,4.35
2017-12-28T11:15:30.770Z,4.35
2017-12-28T11:17:56.547Z,4.37
2017-12-28T11:20:22.345Z,4.39
2017-12-28T11:22:48.142Z,4.51
2017-12-28T11:25:13.931Z,4.53
2017-12-28T11:27:39.715Z,4.53
2017-12-28T11:30:05.491Z,4.64
2017-12-28T11:32:31.307Z,4.64
2017-12-28T11:34:57.085Z,4.59
2017-12-28T11:37:22.871Z,4.66
2017-12-28T11:39:48.767Z,4.70
2017-12-28T11:42:14.551Z,4.73
2017-12-28T11:44:40.341Z,4.88
2017-12-28T11:47:06.153Z,4.94
2017-12-28T11:49:31.953Z,4.89
2017-12-28T11:52:03.827Z,4.94
2017-12-28T11:54:30.726Z,4.96
2017-12-28T11:57:01.538Z,4.93
2017-12-28T11:59:27.343Z,4.85
2017-12-28T12:01:59.344Z,4.85
2017-12-28T12:04:25.162Z,5.01
2017-12-28T12:06:51.874Z,5.18
2017-12-28T12:09:17.719Z,5.04
2017-12-28T12:11:43.510Z,5.03
2017-12-28T12:14:09.365Z,5.05
2017-12-28T12:16:35.184Z,5.08
2017-12-28T12:19:00.985Z,5.23
2017-12-28T12:21:26.768Z,5.08
2017-12-28T12:23:52.608Z,5.09
2017-12-28T12:26:18.591Z,5.16
2017-12-28T12:28:44.417Z,5.20
2017-12-28T12:31:10.231Z,5.26
2017-12-28T12:33:36.048Z,5.34
2017-12-28T12:36:01.846Z,5.26
2017-12-28T12:38:27.807Z,5.31
2017-12-28T12:40:53.602Z,5.40
2017-12-28T12:43:19.394Z,5.41
2017-12-28T12:45:45.205Z,5.33
2017-12-28T12:48:10.998Z,5.38
2017-12-28T12:50:36.796Z,5.28
2017-12-28T12:53:03.043Z,5.31
2017-12-28T12:55:28.831Z,5.32
2017-12-28T12:57:54.611Z,5.30
2017-12-28T13:00:20.414Z,5.18
2017-12-28T13:02:46.202Z,5.25
2017-12-28T13:05:12.044Z,5.17
2017-12-28T13:07:40.098Z,5.01
2017-12-28T13:10:06.003Z,5.00
2017-12-28T13:12:31.846Z,5.00
2017-12-28T13:14:57.748Z,5.02
2017-12-28T13:17:23.847Z,4.97
2017-12-28T13:19:49.630Z,4.98
2017-12-28T13:22:15.425Z,4.84
2017-12-28T13:24:41.415Z,4.79
2017-12-28T13:27:07.202Z,4.73
2017-12-28T13:29:32.982Z,4.76
2017-12-28T13:31:58.791Z,4.71
2017-12-28T13:34:24.596Z,4.60
2017-12-28T13:36:50.391Z,4.61
2017-12-28T13:39:16.194Z,4.55
2017-12-28T13:41:42.323Z,4.51
2017-12-28T13:44:08.127Z,4.54
2017-12-28T13:46:33.924Z,4.54
2017-12-28T13:48:59.974Z,4.54
2017-12-28T13:51:25.767Z,4.55
2017-12-28T13:53:51.548Z,4.47
2017-12-28T13:56:17.366Z,4.58
2017-12-28T13:58:43.150Z,4.56
2017-12-28T14:01:09.047Z,4.53
2017-12-28T14:03:34.859Z,4.55
2017-12-28T14:06:00.635Z,4.52
2017-12-28T14:08:26.452Z,4.56
2017-12-28T14:10:52.386Z,4.58
2017-12-28T14:13:18.318Z,4.46
2017-12-28T14:15:44.118Z,4.52
2017-12-28T14:18:10.121Z,4.59
2017-12-28T14:20:35.903Z,4.59
2017-12-28T14:23:01.782Z,4.61
2017-12-28T14:25:27.658Z,4.59
2017-12-28T14:27:53.465Z,4.62
2017-12-28T14:30:19.256Z,4.58
2017-12-28T14:32:45.096Z,4.61
2017-12-28T14:35:10.892Z,4.62
2017-12-28T14:37:36.726Z,4.61
2017-12-28T14:40:03.000Z,4.64
2017-12-28T14:42:29.738Z,4.64
2017-12-28T14:44:55.555Z,4.62
2017-12-28T14:47:21.385Z,4.66
2017-12-28T14:49:47.435Z,4.59
2017-12-28T14:52:13.230Z,4.61
2017-12-28T14:54:39.047Z,4.57
2017-12-28T14:57:05.696Z,4.53
2017-12-28T14:59:31.581Z,4.56
2017-12-28T15:01:57.584Z,4.60
2017-12-28T15:04:23.379Z,4.57
2017-12-28T15:06:49.165Z,4.62
2017-12-28T15:09:14.958Z,4.63
2017-12-28T15:11:40.759Z,4.64
2017-12-28T15:14:06.542Z,4.62
2017-12-28T15:16:32.584Z,4.63
2017-12-28T15:18:58.406Z,4.57
2017-12-28T15:21:24.367Z,4.56
2017-12-28T15:23:50.175Z,4.53
2017-12-28T15:26:15.973Z,4.52
2017-12-28T15:28:41.783Z,4.54
2017-12-28T15:31:07.661Z,4.54
2017-12-28T15:33:33.584Z,4.51
2017-12-28T15:35:59.443Z,4.54
2017-12-28T15:38:25.246Z,4.57
2017-12-28T15:40:51.035Z,4.56
2017-12-28T15:43:16.940Z,4.50
2017-12-28T15:45:42.779Z,4.51
2017-12-28T15:48:08.597Z,4.54
2017-12-28T15:50:34.437Z,4.53
2017-12-28T15:53:00.222Z,4.56
2017-12-28T15:55:25.995Z,4.53
2017-12-28T15:57:52.666Z,4.53
2017-12-28T16:00:18.488Z,4.59
2017-12-28T16:02:44.849Z,4.59
2017-12-28T16:05:10.790Z,4.55
2017-12-28T16:07:36.643Z,4.44
2017-12-28T16:10:02.703Z,4.46
2017-12-28T16:12:28.511Z,4.46
2017-12-28T16:14:54.291Z,4.47
2017-12-28T16:17:20.075Z,4.50
2017-12-28T16:19:45.875Z,4.49
2017-12-28T16:22:11.665Z,4.45
2017-12-28T16:24:44.374Z,4.39
2017-12-28T16:27:10.372Z,4.42
2017-12-28T16:29:36.150Z,4.34
2017-12-28T16:32:01.962Z,4.36
2017-12-28T16:34:28.189Z,4.43
2017-12-28T16:36:54.001Z,4.44
2017-12-28T16:39:19.845Z,4.34
2017-12-28T16:41:45.648Z,4.31
2017-12-28T16:44:11.435Z,4.27
2017-12-28T16:46:37.230Z,4.22
2017-12-28T16:49:03.043Z,4.18
2017-12-28T16:51:28.822Z,4.22
2017-12-28T16:53:54.624Z,4.18
2017-12-28T16:56:20.416Z,4.08
2017-12-28T16:58:46.212Z,4.07
2017-12-28T17:01:12.011Z,4.03
2017-12-28T17:03:37.803Z,3.96
2017-12-28T17:06:03.601Z,3.81
2017-12-28T17:08:30.020Z,3.90
2017-12-28T17:10:55.803Z,3.80
2017-12-28T17:13:21.999Z,3.80
2017-12-28T17:15:47.791Z,3.79
2017-12-28T17:18:20.567Z,3.69
2017-12-28T17:20:46.722Z,3.77
2017-12-28T17:23:12.902Z,3.78
2017-12-28T17:25:38.751Z,3.74
2017-12-28T17:28:04.556Z,3.73
2017-12-28T17:30:30.359Z,3.78
2017-12-28T17:32:56.148Z,3.74
2017-12-28T17:35:21.931Z,3.72
2017-12-28T17:37:47.944Z,3.72
2017-12-28T17:40:13.737Z,3.76
2017-12-28T17:42:39.851Z,3.74
2017-12-28T17:45:05.666Z,3.75
2017-12-28T17:47:31.588Z,3.74
2017-12-28T17:49:57.409Z,3.67
2017-12-28T17:52:23.523Z,3.69
2017-12-28T17:54:49.325Z,3.72
2017-12-28T17:57:15.131Z,3.66
2017-12-28T17:59:40.910Z,3.70
2017-12-28T18:02:06.703Z,3.59
2017-12-28T18:04:32.861Z,3.63
2017-12-28T18:06:58.662Z,3.60
2017-12-28T18:09:24.616Z,3.50
2017-12-28T18:11:50.403Z,3.51
2017-12-28T18:14:17.801Z,3.37
2017-12-28T18:16:43.597Z,3.46
2017-12-28T18:19:09.402Z,3.38
2017-12-28T18:21:35.200Z,3.38
2017-12-28T18:24:01.030Z,3.40
2017-12-28T18:26:27.102Z,3.42
2017-12-28T18:28:52.906Z,3.43
2017-12-28T18:31:18.774Z,3.53
2017-12-28T18:33:44.682Z,3.43
2017-12-28T18:36:10.587Z,3.50
2017-12-28T18:38:36.387Z,3.48
2017-12-28T18:41:02.295Z,3.50
2017-12-28T18:43:28.104Z,3.50
2017-12-28T18:45:53.939Z,3.55
2017-12-28T18:48:19.947Z,3.50
2017-12-28T18:50:45.743Z,3.54
2017-12-28T18:53:11.860Z,3.51
2017-12-28T18:55:37.641Z,3.58
2017-12-28T18:58:03.430Z,3.63
2017-12-28T19:00:29.249Z,3.67
2017-12-28T19:02:55.377Z,3.75
2017-12-28T19:05:21.167Z,3.70
2017-12-28T19:07:47.327Z,3.81
2017-12-28T19:10:13.110Z,3.79
2017-12-28T19:12:39.282Z,3.75
2017-12-28T19:15:05.159Z,3.71
2017-12-28T19:17:30.908Z,3.80
2017-12-28T19:19:56.700Z,3.85
2017-12-28T19:22:22.495Z,3.86
2017-12-28T19:24:48.315Z,3.77
2017-12-28T19:27:14.122Z,3.79
2017-12-28T19:29:39.898Z,3.83
2017-12-28T19:32:05.694Z,3.84
2017-12-28T19:34:31.515Z,3.85
2017-12-28T19:36:57.595Z,3.91
2017-12-28T19:39:23.386Z,3.78
2017-12-28T19:41:49.694Z,3.93
2017-12-28T19:44:15.500Z,3.95
2017-12-28T19:46:41.727Z,3.89
2017-12-28T19:49:07.541Z,3.84
2017-12-28T19:51:33.388Z,3.73
2017-12-28T19:53:59.205Z,3.77
2017-12-28T19:56:25.052Z,3.86
2017-12-28T19:58:50.843Z,3.80
2017-12-28T20:01:17.024Z,3.74
2017-12-28T20:03:42.798Z,3.78
2017-12-28T20:06:08.600Z,3.77
2017-12-28T20:08:34.416Z,3.73
2017-12-28T20:11:00.190Z,3.70
2017-12-28T20:13:25.972Z,3.67
2017-12-28T20:15:51.835Z,3.73
2017-12-28T20:18:17.675Z,3.69
2017-12-28T20:20:43.478Z,3.77
2017-12-28T20:23:09.260Z,3.75
2017-12-28T20:25:35.062Z,3.70
2017-12-28T20:28:00.946Z,3.73
2017-12-28T20:30:26.762Z,3.69
2017-12-28T20:32:52.935Z,3.68
2017-12-28T20:35:18.754Z,3.58
2017-12-28T20:37:44.559Z,3.66
2017-12-28T20:40:10.355Z,3.63
2017-12-28T20:42:36.234Z,3.64
2017-12-28T20:45:02.047Z,3.67
2017-12-28T20:47:27.839Z,3.67
2017-12-28T20:49:53.650Z,3.65
2017-12-28T20:52:19.455Z,3.76
2017-12-28T20:54:45.278Z,3.73
2017-12-28T20:57:11.184Z,3.74
2017-12-28T20:59:37.006Z,3.72
2017-12-28T21:02:02.799Z,3.77
2017-12-28T21:04:28.814Z,3.72
2017-12-28T21:06:54.731Z,3.91
2017-12-28T21:09:20.538Z,3.80
2017-12-28T21:11:46.622Z,3.80
2017-12-28T21:14:12.439Z,3.87
2017-12-28T21:16:38.276Z,3.78
2017-12-28T21:19:04.180Z,3.87
2017-12-28T21:21:29.980Z,3.81
2017-12-28T21:23:55.775Z,3.76
2017-12-28T21:26:21.583Z,3.85
2017-12-28T21:28:47.366Z,3.76
2017-12-28T21:31:13.198Z,3.82
2017-12-28T21:33:39.240Z,3.87
2017-12-28T21:36:05.028Z,3.84
2017-12-28T21:38:30.818Z,3.85
2017-12-28T21:40:57.009Z,3.86
2017-12-28T21:43:22.789Z,3.91
2017-12-28T21:45:48.626Z,3.80
2017-12-28T21:48:14.833Z,3.80
2017-12-28T21:50:40.609Z,3.76
2017-12-28T21:53:06.401Z,3.75
2017-12-28T21:55:32.231Z,3.83
2017-12-28T21:57:58.030Z,3.79
2017-12-28T22:00:23.814Z,3.79
2017-12-28T22:02:49.608Z,3.75
2017-12-28T22:05:15.422Z,3.74
2017-12-28T22:07:41.244Z,3.72
2017-12-28T22:10:07.039Z,3.76
2017-12-28T22:12:32.838Z,3.74
2017-12-28T22:14:58.646Z,3.74
2017-12-28T22:17:24.418Z,3.75
2017-12-28T22:19:50.224Z,3.81
2017-12-28T22:22:16.016Z,3.77
2017-12-28T22:24:41.811Z,3.78
2017-12-28T22:27:07.613Z,3.83
2017-12-28T22:29:33.388Z,3.87
2017-12-28T22:31:59.176Z,3.87
2017-12-28T22:34:25.012Z,3.84
2017-12-28T22:36:50.824Z,3.85
2017-12-28T22:39:16.653Z,3.88
2017-12-28T22:41:42.468Z,3.88
2017-12-28T22:44:08.267Z,3.86
2017-12-28T22:46:34.055Z,3.87
2017-12-28T22:48:59.896Z,3.88
2017-12-28T22:51:25.681Z,3.84
2017-12-28T22:53:51.459Z,3.88
2017-12-28T22:56:17.480Z,3.87
2017-12-28T22:58:43.280Z,3.83
2017-12-28T23:01:09.090Z,3.83
2017-12-28T23:03:34.887Z,3.82
2017-12-28T23:06:00.683Z,3.84
2017-12-28T23:08:26.541Z,3.85
2017-12-28T23:10:52.330Z,3.81
2017-12-28T23:13:18.202Z,3.87
2017-12-28T23:15:43.998Z,3.85
2017-12-28T23:18:10.047Z,3.83
2017-12-28T23:20:35.905Z,3.79
2017-12-28T23:23:01.915Z,3.79
2017-12-28T23:25:27.727Z,3.81
2017-12-28T23:27:53.519Z,3.76
2017-12-28T23:30:19.339Z,3.79
2017-12-28T23:32:45.143Z,3.80
2017-12-28T23:35:10.925Z,3.80
2017-12-28T23:37:36.999Z,3.79
2017-12-28T23:40:02.968Z,3.82
2017-12-28T23:42:28.785Z,3.82
2017-12-28T23:44:54.797Z,3.79
2017-12-28T23:47:20.626Z,3.81
2017-12-28T23:49:47.234Z,3.81
2017-12-28T23:52:13.038Z,3.77
2017-12-28T23:54:38.876Z,3.81
2017-12-28T23:57:04.707Z,3.71
2017-12-28T23:59:30.599Z,3.76
